createdAt,value
2022-11-30T00:01:23.745Z,5.70
2022-11-30T00:03:54.396Z,4.77
2022-11-30T00:06:23.829Z,3.30
2022-11-30T00:08:53.644Z,4.50
2022-11-30T00:11:22.655Z,4.47
2022-11-30T00:13:51.066Z,3.47
2022-11-30T00:16:20.312Z,4.33
2022-11-30T00:18:48.204Z,4.47
2022-11-30T00:21:16.666Z,3.80
2022-11-30T00:23:45.936Z,4.30
2022-11-30T00:26:15.763Z,4.07
2022-11-30T00:28:45.176Z,3.63
2022-11-30T00:31:15.419Z,3.93
2022-11-30T00:33:44.709Z,4.28
2022-11-30T00:36:14.925Z,3.37
2022-11-30T00:38:42.970Z,3.37
2022-11-30T00:41:10.850Z,3.47
2022-11-30T00:43:38.672Z,3.80
2022-11-30T00:46:08.996Z,4.63
2022-11-30T00:48:37.018Z,3.78
2022-11-30T00:51:06.897Z,4.77
2022-11-30T00:53:34.741Z,4.27
2022-11-30T00:56:02.576Z,3.27
2022-11-30T00:58:30.429Z,3.73
2022-11-30T01:00:58.266Z,4.13
2022-11-30T01:03:26.140Z,4.87
2022-11-30T01:05:54.044Z,4.60
2022-11-30T01:08:25.462Z,5.03
2022-11-30T01:10:57.567Z,4.77
2022-11-30T01:13:25.520Z,3.60
2022-11-30T01:15:53.320Z,3.93
2022-11-30T01:18:21.165Z,4.40
2022-11-30T01:20:48.988Z,3.73
2022-11-30T01:23:16.793Z,4.53
2022-11-30T01:25:54.833Z,4.23
2022-11-30T01:28:22.676Z,4.20
2022-11-30T01:30:58.156Z,4.40
2022-11-30T01:33:26.301Z,4.77
2022-11-30T01:36:01.580Z,3.53
2022-11-30T01:38:33.556Z,4.13
2022-11-30T01:41:02.959Z,4.03
2022-11-30T01:43:41.796Z,3.40
2022-11-30T01:46:24.933Z,4.43
2022-11-30T01:49:00.617Z,4.70
2022-11-30T01:51:34.567Z,4.80
2022-11-30T01:54:03.343Z,4.20
2022-11-30T01:56:32.979Z,4.30
2022-11-30T01:59:01.252Z,4.17
2022-11-30T02:01:29.439Z,3.87
2022-11-30T02:04:01.498Z,3.90
2022-11-30T02:06:30.463Z,4.97
2022-11-30T02:08:58.431Z,3.60
2022-11-30T02:11:28.849Z,4.63
2022-11-30T02:14:12.007Z,4.30
2022-11-30T02:16:49.546Z,3.53
2022-11-30T02:19:47.301Z,4.13
2022-11-30T02:22:28.088Z,3.97
2022-11-30T02:25:06.108Z,4.18
2022-11-30T02:27:46.860Z,3.60
2022-11-30T02:30:19.543Z,3.53
2022-11-30T02:32:50.546Z,3.97
2022-11-30T02:35:21.340Z,3.40
2022-11-30T02:37:49.999Z,3.70
2022-11-30T02:40:20.115Z,4.60
2022-11-30T02:42:49.821Z,4.87
2022-11-30T02:45:20.811Z,4.43
2022-11-30T02:47:56.333Z,4.65
2022-11-30T02:50:29.256Z,5.20
2022-11-30T02:52:57.594Z,4.30
2022-11-30T02:55:25.711Z,4.27
2022-11-30T02:57:53.508Z,3.67
2022-11-30T03:00:23.125Z,3.57
2022-11-30T03:02:50.949Z,3.43
2022-11-30T03:05:18.856Z,3.23
2022-11-30T03:07:46.878Z,3.90
2022-11-30T03:10:14.879Z,3.00
2022-11-30T03:12:42.648Z,4.33
2022-11-30T03:15:11.211Z,4.37
2022-11-30T03:17:40.414Z,4.07
2022-11-30T03:20:09.781Z,3.97
2022-11-30T03:22:38.693Z,3.20
2022-11-30T03:25:07.261Z,3.03
2022-11-30T03:27:35.075Z,3.63
2022-11-30T03:30:02.875Z,3.73
2022-11-30T03:32:31.048Z,4.17
2022-11-30T03:35:00.283Z,3.73
2022-11-30T03:37:28.098Z,3.63
2022-11-30T03:39:58.316Z,3.47
2022-11-30T03:42:26.431Z,4.40
2022-11-30T03:44:54.216Z,2.70
2022-11-30T03:47:22.034Z,3.30
2022-11-30T03:49:49.966Z,3.93
2022-11-30T03:52:19.085Z,3.53
2022-11-30T03:54:47.186Z,4.57
2022-11-30T03:57:15.092Z,3.00
2022-11-30T03:59:42.916Z,3.77
2022-11-30T04:02:10.732Z,3.97
2022-11-30T04:04:38.550Z,3.10
2022-11-30T04:07:06.295Z,3.80
2022-11-30T04:09:35.407Z,3.73
2022-11-30T04:12:03.213Z,4.53
2022-11-30T04:14:31.037Z,3.57
2022-11-30T04:16:58.832Z,3.30
2022-11-30T04:19:26.625Z,4.87
2022-11-30T04:21:54.415Z,3.77
2022-11-30T04:24:22.269Z,4.17
2022-11-30T04:26:51.352Z,3.37
2022-11-30T04:29:19.142Z,3.67
2022-11-30T04:31:47.016Z,3.10
2022-11-30T04:34:14.990Z,3.17
2022-11-30T04:36:42.789Z,3.43
2022-11-30T04:39:10.617Z,4.00
2022-11-30T04:41:38.377Z,3.30
2022-11-30T04:44:07.584Z,3.47
2022-11-30T04:46:35.379Z,3.53
2022-11-30T04:49:03.285Z,4.10
2022-11-30T04:51:31.073Z,3.03
2022-11-30T04:53:58.887Z,3.30
2022-11-30T04:56:26.701Z,3.33
2022-11-30T04:58:54.463Z,3.83
2022-11-30T05:01:23.570Z,2.30
2022-11-30T05:03:51.448Z,3.77
2022-11-30T05:06:19.282Z,3.50
2022-11-30T05:08:47.172Z,3.53
2022-11-30T05:11:15.020Z,3.37
2022-11-30T05:13:42.861Z,3.23
2022-11-30T05:16:11.492Z,2.77
2022-11-30T05:18:40.641Z,4.43
2022-11-30T05:21:08.421Z,3.03
2022-11-30T05:23:36.172Z,4.20
2022-11-30T05:26:04.271Z,3.27
2022-11-30T05:28:32.105Z,3.33
2022-11-30T05:31:04.578Z,3.27
2022-11-30T05:33:32.704Z,3.27
2022-11-30T05:36:04.641Z,3.17
2022-11-30T05:38:35.012Z,2.73
2022-11-30T05:41:03.215Z,2.70
2022-11-30T05:43:31.032Z,3.00
2022-11-30T05:46:01.049Z,3.07
2022-11-30T05:48:29.169Z,3.03
2022-11-30T05:50:57.004Z,2.53
2022-11-30T05:53:26.172Z,2.93
2022-11-30T05:55:53.920Z,3.10
2022-11-30T05:58:21.677Z,3.40
2022-11-30T06:00:49.457Z,2.77
2022-11-30T06:03:17.312Z,2.47
2022-11-30T06:05:45.190Z,2.67
2022-11-30T06:08:12.965Z,3.47
2022-11-30T06:10:42.077Z,3.20
2022-11-30T06:13:10.677Z,3.27
2022-11-30T06:15:38.771Z,2.97
2022-11-30T06:18:07.778Z,3.00
2022-11-30T06:20:35.879Z,2.80
2022-11-30T06:23:03.764Z,3.40
2022-11-30T06:25:31.888Z,2.73
2022-11-30T06:28:01.061Z,3.10
2022-11-30T06:30:28.906Z,2.97
2022-11-30T06:32:56.746Z,2.50
2022-11-30T06:35:25.674Z,2.23
2022-11-30T06:37:54.600Z,3.00
2022-11-30T06:40:22.573Z,4.10
2022-11-30T06:42:50.334Z,3.27
2022-11-30T06:45:19.759Z,2.70
2022-11-30T06:47:47.596Z,2.97
2022-11-30T06:50:15.696Z,3.13
2022-11-30T06:52:43.524Z,3.07
2022-11-30T06:55:11.948Z,2.93
2022-11-30T06:57:39.720Z,3.73
2022-11-30T07:00:09.118Z,2.63
2022-11-30T07:02:38.263Z,2.57
2022-11-30T07:05:07.003Z,2.77
2022-11-30T07:07:35.086Z,3.37
2022-11-30T07:10:03.000Z,3.20
2022-11-30T07:12:30.797Z,3.53
2022-11-30T07:14:58.592Z,3.60
2022-11-30T07:17:26.464Z,2.73
2022-11-30T07:19:55.652Z,2.83
2022-11-30T07:22:23.491Z,3.20
2022-11-30T07:25:08.992Z,3.67
2022-11-30T07:27:36.822Z,2.90
2022-11-30T07:30:05.728Z,3.30
2022-11-30T07:32:33.479Z,3.27
2022-11-30T07:35:02.621Z,3.47
2022-11-30T07:37:30.485Z,3.00
2022-11-30T07:39:58.348Z,3.40
2022-11-30T07:42:26.239Z,3.03
2022-11-30T07:44:58.619Z,2.93
2022-11-30T07:47:27.160Z,2.50
2022-11-30T07:49:54.989Z,2.73
2022-11-30T07:52:24.474Z,2.53
2022-11-30T07:54:52.268Z,2.80
2022-11-30T07:57:20.147Z,3.30
2022-11-30T07:59:48.242Z,2.70
2022-11-30T08:02:16.377Z,2.60
2022-11-30T08:04:44.306Z,3.13
2022-11-30T08:07:12.180Z,3.60
2022-11-30T08:09:41.358Z,1.67
2022-11-30T08:12:09.419Z,3.17
2022-11-30T08:14:56.910Z,2.70
2022-11-30T08:17:26.051Z,3.23
2022-11-30T08:19:53.831Z,2.73
2022-11-30T08:22:21.648Z,2.27
2022-11-30T08:24:51.033Z,3.57
2022-11-30T08:27:19.820Z,3.33
2022-11-30T08:29:47.634Z,2.97
2022-11-30T08:32:15.474Z,3.10
2022-11-30T08:34:43.341Z,3.63
2022-11-30T08:37:11.477Z,2.90
2022-11-30T08:39:39.447Z,2.60
2022-11-30T08:42:08.725Z,2.73
2022-11-30T08:44:36.544Z,2.40
2022-11-30T08:47:04.422Z,2.63
2022-11-30T08:49:32.255Z,3.17
2022-11-30T08:54:49.250Z,3.00
2022-11-30T08:57:20.770Z,2.63
2022-11-30T09:02:18.982Z,3.37
2022-11-30T09:04:49.611Z,2.53
2022-11-30T09:07:17.757Z,2.72
2022-11-30T09:09:45.751Z,2.83
2022-11-30T09:12:13.589Z,2.73
2022-11-30T09:14:42.931Z,2.60
2022-11-30T09:17:10.724Z,2.67
2022-11-30T09:19:38.526Z,3.30
2022-11-30T09:22:06.368Z,2.70
2022-11-30T09:24:34.235Z,3.23
2022-11-30T09:27:02.089Z,2.60
2022-11-30T09:29:29.934Z,3.10
2022-11-30T09:31:59.105Z,2.83
2022-11-30T09:34:26.857Z,3.13
2022-11-30T09:36:54.695Z,2.27
2022-11-30T09:39:22.523Z,2.83
2022-11-30T09:42:12.299Z,2.57
2022-11-30T09:44:50.539Z,2.57
2022-11-30T09:47:37.054Z,3.37
2022-11-30T09:50:11.989Z,1.87
2022-11-30T09:52:44.096Z,3.07
2022-11-30T09:55:16.013Z,2.30
2022-11-30T09:57:47.449Z,2.73
2022-11-30T10:00:17.913Z,2.23
2022-11-30T10:02:50.638Z,2.58
2022-11-30T10:05:22.970Z,2.20
2022-11-30T10:08:12.302Z,3.40
2022-11-30T10:10:43.222Z,2.73
2022-11-30T10:13:24.412Z,1.90
2022-11-30T10:16:02.365Z,3.25
2022-11-30T10:18:41.797Z,2.90
2022-11-30T10:21:22.098Z,2.70
2022-11-30T10:24:03.515Z,2.43
2022-11-30T10:26:35.188Z,3.43
2022-11-30T10:29:13.875Z,2.77
2022-11-30T10:31:44.196Z,3.23
2022-11-30T10:34:21.424Z,2.80
2022-11-30T10:36:55.897Z,4.00
2022-11-30T10:39:29.747Z,2.60
2022-11-30T10:42:03.224Z,3.40
2022-11-30T10:44:35.118Z,2.60
2022-11-30T10:47:08.112Z,3.03
2022-11-30T10:49:39.484Z,3.47
2022-11-30T10:52:10.159Z,2.17
2022-11-30T10:54:38.312Z,3.42
2022-11-30T10:57:08.329Z,2.90
2022-11-30T10:59:43.609Z,2.80
2022-11-30T11:02:37.511Z,2.97
2022-11-30T11:05:18.205Z,3.00
2022-11-30T11:07:50.151Z,3.30
2022-11-30T11:10:19.566Z,2.20
2022-11-30T11:12:50.746Z,3.37
2022-11-30T11:17:48.803Z,3.80
2022-11-30T11:20:35.994Z,2.57
2022-11-30T11:23:05.414Z,3.60
2022-11-30T11:25:36.213Z,3.60
2022-11-30T11:28:13.560Z,2.70
2022-11-30T11:30:42.419Z,3.07
2022-11-30T11:33:21.438Z,3.57
2022-11-30T11:35:52.293Z,2.83
2022-11-30T11:38:26.133Z,3.42
2022-11-30T11:40:57.502Z,4.17
2022-11-30T11:43:27.398Z,3.10
2022-11-30T11:45:58.036Z,3.13
2022-11-30T11:48:32.964Z,2.78
2022-11-30T11:51:08.024Z,2.67
2022-11-30T11:53:46.288Z,3.03
2022-11-30T11:56:26.030Z,4.03
2022-11-30T11:58:59.287Z,2.83
2022-11-30T12:01:43.498Z,2.80
2022-11-30T12:04:37.755Z,3.27
2022-11-30T12:07:19.182Z,2.70
2022-11-30T12:10:21.842Z,2.50
2022-11-30T12:12:55.139Z,2.50
2022-11-30T12:15:29.892Z,3.90
2022-11-30T12:18:05.694Z,2.23
2022-11-30T12:20:49.248Z,2.93
2022-11-30T12:23:35.791Z,2.53
2022-11-30T12:26:12.955Z,2.40
2022-11-30T12:28:48.364Z,2.10
2022-11-30T12:31:18.200Z,2.60
2022-11-30T12:34:02.343Z,2.17
2022-11-30T12:36:45.762Z,2.50
2022-11-30T12:39:26.962Z,2.27
2022-11-30T12:42:00.559Z,2.38
2022-11-30T12:44:42.535Z,2.00
2022-11-30T12:47:26.678Z,2.40
2022-11-30T12:50:05.029Z,2.73
2022-11-30T12:52:44.997Z,3.37
2022-11-30T12:55:23.515Z,2.17
2022-11-30T12:58:00.112Z,2.73
2022-11-30T13:00:35.170Z,2.40
2022-11-30T13:03:25.818Z,2.87
2022-11-30T13:05:58.847Z,2.30
2022-11-30T13:08:30.135Z,2.90
2022-11-30T13:11:04.124Z,2.92
2022-11-30T13:13:35.108Z,2.83
2022-11-30T13:16:06.776Z,2.97
2022-11-30T13:18:37.024Z,2.20
2022-11-30T13:21:10.093Z,3.43
2022-11-30T13:23:42.635Z,3.17
2022-11-30T13:26:20.709Z,2.67
2022-11-30T13:29:02.859Z,2.77
2022-11-30T13:31:36.094Z,2.70
2022-11-30T13:34:04.054Z,2.30
2022-11-30T13:36:38.971Z,1.97
2022-11-30T13:39:23.578Z,1.83
2022-11-30T13:42:08.638Z,2.40
2022-11-30T13:44:38.216Z,2.88
2022-11-30T15:50:32.421Z,3.60
2022-11-30T15:53:03.137Z,3.73
2022-11-30T15:55:44.606Z,3.42
2022-11-30T15:58:30.406Z,3.23
2022-11-30T16:01:05.362Z,3.40
2022-11-30T16:03:34.679Z,4.40
2022-11-30T16:06:05.748Z,3.23
2022-11-30T16:08:34.994Z,3.53
2022-11-30T16:11:07.687Z,3.23
2022-11-30T16:13:36.076Z,3.53
2022-11-30T16:16:11.459Z,2.70
2022-11-30T16:18:39.597Z,3.50
2022-11-30T16:21:07.760Z,2.50
2022-11-30T16:23:36.874Z,4.00
2022-11-30T16:26:07.901Z,3.70
2022-11-30T16:28:41.524Z,3.45
2022-11-30T16:31:19.024Z,3.83
2022-11-30T16:33:47.660Z,3.77
2022-11-30T16:36:17.781Z,3.80
2022-11-30T16:38:48.821Z,2.93
2022-11-30T16:41:19.556Z,3.28
2022-11-30T16:43:55.632Z,2.78
2022-11-30T16:46:24.888Z,3.13
2022-11-30T16:48:52.913Z,3.53
2022-11-30T16:51:23.858Z,3.73
2022-11-30T16:53:53.057Z,3.15
2022-11-30T16:56:20.888Z,3.23
2022-11-30T16:58:49.175Z,3.73
2022-11-30T17:01:22.078Z,2.67
2022-11-30T17:03:52.180Z,3.50
2022-11-30T17:06:22.009Z,2.90
2022-11-30T17:08:51.895Z,3.37
2022-11-30T17:11:24.282Z,3.60
2022-11-30T17:13:52.092Z,3.27
2022-11-30T17:16:19.983Z,2.60
2022-11-30T17:18:47.869Z,3.13
2022-11-30T17:21:17.852Z,3.23
2022-11-30T17:23:46.112Z,2.07
2022-11-30T17:26:15.299Z,2.70
2022-11-30T17:28:43.228Z,3.43
2022-11-30T17:31:11.616Z,3.73
2022-11-30T17:33:43.573Z,3.30
2022-11-30T17:36:15.824Z,2.83
2022-11-30T17:38:45.144Z,2.40
2022-11-30T17:41:19.291Z,3.17
2022-11-30T17:43:47.687Z,3.23
2022-11-30T17:46:17.963Z,2.93
2022-11-30T17:48:45.954Z,2.65
2022-11-30T17:51:14.009Z,2.83
2022-11-30T17:53:43.006Z,2.83
2022-11-30T17:56:12.722Z,2.93
2022-11-30T17:58:44.329Z,3.40
2022-11-30T18:01:17.468Z,2.90
2022-11-30T18:03:45.864Z,3.13
2022-11-30T18:06:13.862Z,2.70
2022-11-30T18:08:41.748Z,2.17
2022-11-30T18:11:11.249Z,3.20
2022-11-30T18:13:39.217Z,3.30
2022-11-30T18:16:10.771Z,3.50
2022-11-30T18:18:42.819Z,2.20
2022-11-30T18:21:15.519Z,2.37
2022-11-30T18:23:43.420Z,2.70
2022-11-30T18:26:13.595Z,2.73
2022-11-30T18:28:41.715Z,2.23
2022-11-30T18:31:11.061Z,2.10
2022-11-30T18:33:39.065Z,1.70
2022-11-30T18:36:07.890Z,1.73
2022-11-30T18:38:38.435Z,2.90
2022-11-30T18:41:07.079Z,2.72
2022-11-30T18:43:35.413Z,1.67
2022-11-30T18:46:04.434Z,2.57
2022-11-30T18:48:33.919Z,1.70
2022-11-30T18:51:09.005Z,1.73
2022-11-30T18:53:36.867Z,2.07
2022-11-30T18:56:09.685Z,2.10
2022-11-30T18:58:37.525Z,2.40
2022-11-30T19:01:10.096Z,2.23
2022-11-30T19:03:39.755Z,2.03
2022-11-30T19:06:09.227Z,1.40
2022-11-30T19:08:37.888Z,1.90
2022-11-30T19:11:06.817Z,1.57
2022-11-30T19:13:35.076Z,1.77
2022-11-30T19:16:03.821Z,1.20
2022-11-30T19:18:31.781Z,2.13
2022-11-30T19:21:01.241Z,1.50
2022-11-30T19:23:29.326Z,1.87
2022-11-30T19:26:01.698Z,2.10
2022-11-30T19:28:30.793Z,1.80
2022-11-30T19:30:58.988Z,2.17
2022-11-30T19:33:26.840Z,1.80
2022-11-30T19:35:54.676Z,1.47
2022-11-30T19:38:23.787Z,1.23
2022-11-30T19:40:51.609Z,1.33
2022-11-30T19:43:19.376Z,1.63
2022-11-30T19:45:47.202Z,1.97
2022-11-30T19:48:15.062Z,1.77
2022-11-30T19:50:42.852Z,1.70
2022-11-30T19:53:10.738Z,1.73
2022-11-30T19:55:41.014Z,2.07
2022-11-30T19:58:08.829Z,2.10
2022-11-30T20:00:36.627Z,3.03
2022-11-30T20:03:09.570Z,2.27
2022-11-30T20:05:37.606Z,1.80
2022-11-30T20:08:06.233Z,2.00
2022-11-30T20:10:34.123Z,2.00
2022-11-30T20:13:03.295Z,2.17
2022-11-30T20:15:31.183Z,2.13
2022-11-30T20:17:59.005Z,1.77
2022-11-30T20:20:26.797Z,1.53
2022-11-30T20:22:54.617Z,1.60
2022-11-30T20:25:22.385Z,1.30
2022-11-30T20:27:50.281Z,1.90
2022-11-30T20:30:19.770Z,1.40
2022-11-30T20:32:47.545Z,2.10
2022-11-30T20:35:15.515Z,2.50
2022-11-30T20:37:43.318Z,2.77
2022-11-30T20:40:12.351Z,1.83
2022-11-30T20:42:40.115Z,1.73
2022-11-30T20:45:08.901Z,1.70
2022-11-30T20:47:38.153Z,1.47
2022-11-30T20:50:07.398Z,1.70
2022-11-30T20:52:35.399Z,1.30
2022-11-30T20:55:03.264Z,2.17
2022-11-30T20:57:31.067Z,2.17
2022-11-30T20:59:58.941Z,2.20
2022-11-30T21:02:26.886Z,2.60
2022-11-30T21:04:56.113Z,2.07
2022-11-30T21:07:24.024Z,2.53
2022-11-30T21:09:52.292Z,2.33
2022-11-30T21:12:20.122Z,2.20
2022-11-30T21:14:48.334Z,2.53
2022-11-30T21:17:16.292Z,2.10
2022-11-30T21:19:44.107Z,1.97
2022-11-30T21:22:13.241Z,2.17
2022-11-30T21:24:41.035Z,2.10
2022-11-30T21:27:09.023Z,2.30
2022-11-30T21:29:37.217Z,2.33
2022-11-30T21:32:05.039Z,1.33
2022-11-30T21:34:32.856Z,1.97
2022-11-30T21:37:00.671Z,1.20
2022-11-30T21:39:29.908Z,2.90
2022-11-30T21:41:57.758Z,2.07
2022-11-30T21:44:25.749Z,1.20
2022-11-30T21:46:53.599Z,1.80
2022-11-30T21:49:21.470Z,2.33
2022-11-30T21:51:49.267Z,2.63
2022-11-30T21:54:17.065Z,2.10
2022-11-30T21:56:46.354Z,1.70
2022-11-30T21:59:15.272Z,2.33
2022-11-30T22:01:43.997Z,1.43
2022-11-30T22:04:13.570Z,1.73
2022-11-30T22:06:42.085Z,1.90
2022-11-30T22:09:13.986Z,2.43
2022-11-30T22:11:44.923Z,1.70
2022-11-30T22:14:16.494Z,2.28
2022-11-30T22:16:44.896Z,1.20
2022-11-30T22:19:12.709Z,1.23
2022-11-30T22:21:44.105Z,1.77
2022-11-30T22:24:15.161Z,2.07
2022-11-30T22:26:44.300Z,2.03
2022-11-30T22:29:16.031Z,1.80
2022-11-30T22:31:46.151Z,2.27
2022-11-30T22:34:14.846Z,1.53
2022-11-30T22:36:44.152Z,2.30
2022-11-30T22:39:14.149Z,1.63
2022-11-30T22:41:43.157Z,1.47
2022-11-30T22:44:13.225Z,1.80
2022-11-30T22:46:43.992Z,1.57
2022-11-30T22:49:19.875Z,2.53
2022-11-30T22:51:48.810Z,1.77
2022-11-30T22:54:16.856Z,1.43
2022-11-30T22:56:46.337Z,1.60
2022-11-30T22:59:15.908Z,3.13
2022-11-30T23:01:47.204Z,2.97
2022-11-30T23:06:44.904Z,2.40
2022-11-30T23:09:14.503Z,3.43
2022-11-30T23:11:42.641Z,3.03
2022-11-30T23:14:11.988Z,2.10
2022-11-30T23:16:40.584Z,3.37
2022-11-30T23:19:11.481Z,2.53
2022-11-30T23:21:42.107Z,2.55
2022-11-30T23:24:14.279Z,1.80
2022-11-30T23:26:42.494Z,2.50
2022-11-30T23:29:13.051Z,3.17
2022-11-30T23:31:42.528Z,2.75
2022-11-30T23:34:14.371Z,3.20
2022-11-30T23:36:42.854Z,3.70
2022-11-30T23:39:12.618Z,3.50
2022-11-30T23:41:40.784Z,2.87
2022-11-30T23:44:09.467Z,3.40
2022-11-30T23:46:38.000Z,2.90
2022-11-30T23:49:05.891Z,3.17
2022-11-30T23:51:35.108Z,3.17
2022-11-30T23:54:02.912Z,4.67
2022-11-30T23:56:30.683Z,3.27
2022-11-30T23:58:58.515Z,3.20
